createdAt,value
2023-01-19T00:03:53.663Z,7.31
2023-01-19T00:08:55.153Z,7.51
2023-01-19T00:13:57.050Z,8.18
2023-01-19T00:18:58.560Z,7.84
2023-01-19T00:24:00.104Z,7.50
2023-01-19T00:29:01.618Z,8.10
2023-01-19T00:34:03.474Z,8.60
2023-01-19T00:39:04.978Z,8.61
2023-01-19T00:44:06.458Z,8.07
2023-01-19T00:49:07.907Z,8.86
2023-01-19T00:54:10.237Z,8.47
2023-01-19T00:59:11.969Z,8.53
2023-01-19T01:04:14.186Z,8.67
2023-01-19T01:09:15.650Z,8.61
2023-01-19T01:14:17.615Z,8.09
2023-01-19T01:19:19.377Z,8.33
2023-01-19T01:24:20.945Z,8.52
2023-01-19T01:29:22.473Z,8.26
2023-01-19T01:34:23.936Z,7.20
2023-01-19T01:39:25.702Z,8.27
2023-01-19T01:44:52.625Z,7.82
2023-01-19T01:50:01.003Z,7.71
2023-01-19T01:55:02.652Z,7.88
2023-01-19T02:00:04.676Z,7.91
2023-01-19T02:05:08.347Z,7.84
2023-01-19T02:10:28.445Z,7.84
2023-01-19T02:15:29.925Z,7.98
2023-01-19T02:20:31.501Z,7.93
2023-01-19T02:25:32.970Z,8.25
2023-01-19T02:30:34.889Z,7.86
2023-01-19T02:35:37.608Z,7.72
2023-01-19T02:40:39.133Z,7.14
2023-01-19T02:45:40.638Z,7.49
2023-01-19T02:50:46.894Z,8.53
2023-01-19T02:55:54.034Z,8.07
2023-01-19T03:01:12.523Z,7.76
2023-01-19T03:06:22.499Z,8.49
2023-01-19T03:11:23.958Z,8.21
2023-01-19T03:16:34.304Z,8.20
2023-01-19T03:21:36.209Z,7.75
2023-01-19T03:26:40.343Z,7.87
2023-01-19T03:31:43.330Z,7.70
2023-01-19T03:36:46.592Z,7.07
2023-01-19T03:41:48.614Z,5.94
2023-01-19T03:46:50.353Z,6.61
2023-01-19T03:51:51.932Z,7.17
2023-01-19T03:56:53.940Z,6.65
2023-01-19T04:01:55.452Z,7.30
2023-01-19T04:06:57.574Z,7.56
2023-01-19T04:12:01.446Z,7.80
2023-01-19T04:17:02.913Z,7.28
2023-01-19T04:22:04.817Z,7.43
2023-01-19T04:27:06.299Z,7.02
2023-01-19T04:32:07.857Z,7.12
2023-01-19T04:37:09.309Z,7.35
2023-01-19T04:42:10.764Z,7.48
2023-01-19T04:47:12.259Z,7.55
2023-01-19T04:52:13.730Z,7.94
2023-01-19T04:57:15.201Z,7.77
2023-01-19T05:02:17.602Z,7.93
2023-01-19T05:07:19.083Z,8.00
2023-01-19T05:12:20.817Z,8.21
2023-01-19T05:17:22.356Z,8.08
2023-01-19T05:22:24.491Z,8.28
2023-01-19T05:27:25.959Z,8.46
2023-01-19T05:32:27.459Z,8.28
2023-01-19T05:37:28.912Z,8.37
2023-01-19T05:42:32.111Z,7.84
2023-01-19T05:47:35.333Z,7.90
2023-01-19T05:52:36.844Z,7.68
2023-01-19T05:57:38.328Z,7.06
2023-01-19T06:02:39.791Z,6.68
2023-01-19T06:07:41.249Z,6.64
2023-01-19T06:12:42.813Z,6.70
2023-01-19T06:17:44.301Z,6.86
2023-01-19T06:22:45.757Z,7.04
2023-01-19T06:27:47.254Z,7.57
2023-01-19T06:32:48.745Z,8.02
2023-01-19T06:37:50.776Z,8.22
2023-01-19T06:42:52.939Z,8.24
2023-01-19T06:47:54.397Z,8.26
2023-01-19T06:52:55.861Z,8.42
2023-01-19T06:58:00.501Z,8.68
2023-01-19T07:03:02.514Z,8.89
2023-01-19T07:08:04.445Z,9.01
2023-01-19T07:13:06.095Z,8.88
2023-01-19T07:18:08.141Z,8.88
2023-01-19T07:23:10.452Z,9.09
2023-01-19T07:28:15.422Z,9.01
2023-01-19T07:33:16.877Z,9.02
2023-01-19T07:38:18.771Z,8.71
2023-01-19T07:43:20.552Z,9.00
2023-01-19T07:48:22.004Z,8.68
2023-01-19T07:53:23.464Z,8.47
2023-01-19T07:58:25.090Z,7.99
2023-01-19T08:03:26.563Z,8.51
2023-01-19T08:08:29.760Z,8.93
2023-01-19T08:13:31.222Z,8.83
2023-01-19T08:18:32.690Z,8.70
2023-01-19T08:23:34.144Z,9.09
2023-01-19T08:28:35.605Z,9.11
2023-01-19T08:33:37.103Z,9.38
2023-01-19T08:38:41.224Z,9.49
2023-01-19T08:43:42.911Z,9.67
2023-01-19T08:48:45.161Z,9.41
2023-01-19T08:53:46.661Z,9.68
2023-01-19T08:58:59.530Z,9.62
2023-01-19T09:04:09.443Z,9.83
2023-01-19T09:09:10.911Z,9.49
2023-01-19T09:14:12.374Z,9.07
2023-01-19T09:19:14.108Z,9.33
2023-01-19T09:24:15.577Z,9.36
2023-01-19T09:29:17.076Z,9.33
2023-01-19T09:34:18.611Z,9.21
2023-01-19T09:39:20.160Z,9.46
2023-01-19T09:44:32.755Z,9.39
2023-01-19T09:49:38.182Z,9.24
2023-01-19T09:54:47.425Z,9.41
2023-01-19T09:59:51.250Z,8.99
2023-01-19T10:05:05.509Z,9.22
2023-01-19T10:10:22.987Z,8.87
2023-01-19T10:15:27.377Z,9.10
2023-01-19T10:20:33.357Z,9.69
2023-01-19T10:25:35.122Z,9.40
2023-01-19T10:30:36.654Z,9.29
2023-01-19T10:35:38.156Z,9.07
2023-01-19T10:40:58.197Z,8.28
2023-01-19T10:45:59.725Z,8.50
2023-01-19T10:51:02.286Z,8.65
2023-01-19T10:56:34.347Z,8.63
2023-01-19T11:01:37.353Z,9.10
2023-01-19T11:06:39.083Z,9.31
2023-01-19T11:11:45.398Z,9.13
2023-01-19T11:16:48.570Z,9.23
2023-01-19T11:21:50.031Z,9.38
2023-01-19T11:26:57.474Z,9.15
2023-01-19T11:32:10.377Z,9.57
2023-01-19T11:37:20.735Z,9.89
2023-01-19T11:42:22.224Z,9.63
2023-01-19T11:47:27.201Z,9.36
2023-01-19T11:52:54.571Z,9.20
2023-01-19T11:57:56.019Z,9.41
2023-01-19T12:03:17.545Z,9.58
2023-01-19T12:08:22.398Z,9.11
2023-01-19T12:13:25.364Z,9.14
2023-01-19T12:18:33.274Z,9.19
2023-01-19T12:23:44.102Z,9.40
2023-01-19T12:28:47.473Z,9.78
2023-01-19T12:33:49.263Z,10.01
2023-01-19T12:39:01.331Z,9.93
2023-01-19T12:44:11.801Z,9.31
2023-01-19T12:49:22.703Z,9.41
2023-01-19T12:54:29.691Z,9.57
2023-01-19T12:59:31.153Z,9.28
2023-01-19T13:04:33.236Z,8.91
2023-01-19T13:09:36.862Z,8.60
2023-01-19T13:14:38.337Z,9.11
2023-01-19T13:19:51.374Z,8.96
2023-01-19T13:25:12.305Z,8.89
2023-01-19T13:30:17.625Z,8.84
2023-01-19T13:35:19.211Z,8.92
2023-01-19T13:40:23.159Z,9.50
2023-01-19T13:45:24.449Z,9.73
2023-01-19T13:50:30.283Z,9.27
2023-01-19T13:55:31.869Z,8.98
2023-01-19T14:00:33.401Z,9.36
2023-01-19T14:05:36.379Z,9.48
2023-01-19T14:10:42.325Z,9.27
2023-01-19T14:15:44.012Z,9.25
2023-01-19T14:21:06.850Z,9.07
2023-01-19T14:26:43.545Z,9.09
2023-01-19T14:32:00.313Z,8.97
2023-01-19T14:37:02.799Z,9.13
2023-01-19T14:42:04.930Z,8.93
2023-01-19T14:47:06.753Z,8.31
2023-01-19T14:52:29.759Z,8.61
2023-01-19T14:57:31.227Z,8.41
2023-01-19T15:02:32.723Z,8.14
2023-01-19T15:07:34.223Z,8.51
2023-01-19T15:12:35.682Z,7.81
2023-01-19T15:17:37.141Z,7.58
2023-01-19T15:22:38.598Z,8.29
2023-01-19T15:27:40.089Z,8.35
2023-01-19T15:32:43.767Z,8.38
2023-01-19T15:37:45.329Z,8.20
2023-01-19T15:42:46.803Z,8.19
2023-01-19T15:47:48.279Z,8.03
2023-01-19T15:52:49.751Z,7.17
2023-01-19T15:57:51.227Z,7.86
2023-01-19T16:02:52.848Z,8.06
2023-01-19T16:07:54.331Z,8.03
2023-01-19T16:12:55.803Z,7.71
2023-01-19T16:17:57.284Z,7.30
2023-01-19T16:23:13.885Z,7.71
2023-01-19T16:28:15.811Z,7.79
2023-01-19T16:33:17.364Z,7.62
2023-01-19T16:38:18.842Z,7.75
2023-01-19T16:43:20.353Z,7.19
2023-01-19T16:48:21.800Z,7.73
2023-01-19T16:53:23.260Z,7.58
2023-01-19T16:58:24.723Z,7.44
2023-01-19T17:03:27.054Z,7.62
2023-01-19T17:08:28.551Z,7.52
2023-01-19T17:13:30.537Z,7.35
2023-01-19T17:18:32.707Z,7.06
2023-01-19T17:23:34.661Z,7.46
2023-01-19T17:28:36.113Z,7.37
2023-01-19T17:33:37.573Z,7.56
2023-01-19T17:38:39.612Z,7.40
2023-01-19T17:43:41.111Z,6.65
2023-01-19T17:48:42.586Z,7.44
2023-01-19T17:53:44.059Z,7.62
2023-01-19T17:58:45.985Z,7.45
2023-01-19T18:03:47.541Z,6.36
2023-01-19T18:08:49.214Z,7.18
2023-01-19T18:13:50.765Z,7.69
2023-01-19T18:18:53.622Z,7.64
2023-01-19T18:24:04.726Z,7.18
2023-01-19T18:29:06.189Z,7.35
2023-01-19T18:34:07.680Z,7.01
2023-01-19T18:39:09.398Z,6.78
2023-01-19T18:44:11.243Z,6.94
2023-01-19T18:49:12.723Z,7.00
2023-01-19T18:54:14.176Z,6.95
2023-01-19T18:59:15.655Z,6.68
2023-01-19T19:04:17.128Z,6.83
2023-01-19T19:09:18.624Z,6.26
2023-01-19T19:14:20.145Z,6.26
2023-01-19T19:19:21.825Z,6.09
2023-01-19T19:24:23.418Z,6.73
2023-01-19T19:29:24.904Z,6.48
2023-01-19T19:34:26.372Z,6.39
2023-01-19T19:39:28.239Z,6.21
2023-01-19T19:44:29.736Z,6.35
2023-01-19T19:49:31.196Z,6.45
2023-01-19T19:54:32.673Z,6.49
2023-01-19T19:59:34.217Z,6.68
2023-01-19T20:04:35.758Z,6.25
2023-01-19T20:09:37.247Z,6.24
2023-01-19T20:14:38.747Z,6.27
2023-01-19T20:19:40.206Z,6.75
2023-01-19T20:24:41.692Z,7.28
2023-01-19T20:29:43.144Z,7.37
2023-01-19T20:34:44.641Z,6.52
2023-01-19T20:39:46.151Z,6.13
2023-01-19T20:44:47.636Z,5.89
2023-01-19T20:49:49.098Z,5.55
2023-01-19T20:54:52.089Z,5.53
2023-01-19T20:59:53.554Z,5.82
2023-01-19T21:04:55.035Z,5.72
2023-01-19T21:09:56.501Z,5.79
2023-01-19T21:14:58.061Z,6.08
2023-01-19T21:19:59.529Z,6.16
2023-01-19T21:25:00.984Z,6.41
2023-01-19T21:30:03.098Z,6.49
2023-01-19T21:35:05.161Z,6.61
2023-01-19T21:40:07.353Z,7.02
2023-01-19T21:45:09.047Z,6.81
2023-01-19T21:50:10.862Z,7.44
2023-01-19T21:55:12.618Z,7.49
2023-01-19T22:00:14.417Z,7.28
2023-01-19T22:05:15.908Z,6.64
2023-01-19T22:10:17.649Z,6.57
2023-01-19T22:15:19.134Z,7.16
2023-01-19T22:20:20.579Z,6.59
2023-01-19T22:25:27.441Z,6.36
2023-01-19T22:30:29.020Z,6.27
2023-01-19T22:35:30.497Z,6.49
2023-01-19T22:40:31.958Z,6.03
2023-01-19T22:45:33.424Z,5.75
2023-01-19T22:50:35.213Z,6.34
2023-01-19T22:55:36.690Z,6.09
2023-01-19T23:00:38.154Z,6.37
2023-01-19T23:05:39.665Z,6.56
2023-01-19T23:10:41.133Z,6.40
2023-01-19T23:15:42.645Z,6.24
2023-01-19T23:20:44.099Z,6.60
2023-01-19T23:25:45.565Z,6.44
2023-01-19T23:30:47.169Z,6.70
2023-01-19T23:35:48.690Z,6.65
2023-01-19T23:40:50.167Z,6.33
2023-01-19T23:45:51.678Z,6.15
2023-01-19T23:50:53.150Z,6.00
2023-01-19T23:55:54.624Z,5.99
